createdAt,value
2022-10-11T00:03:14.796Z,2.77
2022-10-11T00:08:23.254Z,4.07
2022-10-11T00:13:29.135Z,4.80
2022-10-11T00:18:34.732Z,5.18
2022-10-11T00:23:43.359Z,7.10
2022-10-11T00:28:48.806Z,6.83
2022-10-11T00:33:55.562Z,5.95
2022-10-11T00:39:03.851Z,4.43
2022-10-11T00:44:17.518Z,8.40
2022-10-11T00:49:30.771Z,5.80
2022-10-11T00:54:42.440Z,8.37
2022-10-11T00:59:51.843Z,7.85
2022-10-11T01:05:25.137Z,6.50
2022-10-11T01:10:26.370Z,9.50
2022-10-11T01:15:38.528Z,5.45
2022-10-11T01:20:54.182Z,6.70
2022-10-11T01:26:24.813Z,6.32
2022-10-11T01:31:41.928Z,9.18
2022-10-11T01:36:52.752Z,10.53
2022-10-11T01:42:02.507Z,11.30
2022-10-11T01:47:10.910Z,11.13
2022-10-11T01:52:16.375Z,6.60
2022-10-11T01:57:57.266Z,4.35
2022-10-11T02:03:22.398Z,8.93
2022-10-11T02:08:37.171Z,10.67
2022-10-11T02:13:45.327Z,6.38
2022-10-11T02:18:55.902Z,6.63
2022-10-11T02:24:05.434Z,9.68
2022-10-11T02:29:16.864Z,7.85
2022-10-11T02:34:28.005Z,4.03
2022-10-11T02:39:48.670Z,6.85
2022-10-11T02:45:01.142Z,6.10
2022-10-11T02:50:10.400Z,6.05
2022-10-11T02:55:15.803Z,8.13
2022-10-11T03:00:21.171Z,7.03
2022-10-11T03:05:29.221Z,6.43
2022-10-11T03:10:34.666Z,9.40
2022-10-11T03:15:40.075Z,8.02
2022-10-11T03:20:48.280Z,6.53
2022-10-11T03:25:54.485Z,4.63
2022-10-11T03:31:00.169Z,6.90
2022-10-11T03:36:09.523Z,9.77
2022-10-11T03:41:15.314Z,9.70
2022-10-11T03:46:20.859Z,5.65
2022-10-11T03:51:28.857Z,6.43
2022-10-11T03:56:35.285Z,4.88
2022-10-11T04:01:43.099Z,5.47
2022-10-11T04:06:51.158Z,7.53
2022-10-11T04:11:56.522Z,8.48
2022-10-11T04:17:01.930Z,11.43
2022-10-11T04:22:10.415Z,8.05
2022-10-11T04:27:15.838Z,14.00
2022-10-11T04:32:21.224Z,18.00
2022-10-11T04:37:29.069Z,10.00
2022-10-11T04:42:34.853Z,18.50
2022-10-11T04:47:41.852Z,13.75
2022-10-11T04:52:50.071Z,16.77
2022-10-11T04:57:55.334Z,17.63
2022-10-11T05:03:00.951Z,8.55
2022-10-11T05:08:08.938Z,16.67
2022-10-11T05:13:14.286Z,11.60
2022-10-11T05:18:19.692Z,12.27
2022-10-11T05:23:27.571Z,18.83
2022-10-11T05:28:33.201Z,11.45
2022-10-11T05:33:39.443Z,12.00
2022-10-11T05:38:47.692Z,15.48
2022-10-11T05:43:53.259Z,11.50
2022-10-11T05:48:58.434Z,13.38
2022-10-11T05:54:06.442Z,14.57
2022-10-11T05:59:12.020Z,10.63
2022-10-11T06:04:19.266Z,14.00
2022-10-11T06:09:27.298Z,10.17
2022-10-11T06:14:32.775Z,14.68
2022-10-11T06:19:38.471Z,10.20
2022-10-11T06:24:46.471Z,12.53
2022-10-11T06:29:52.475Z,10.07
2022-10-11T06:34:57.874Z,9.37
2022-10-11T06:40:06.087Z,11.60
2022-10-11T06:45:12.505Z,10.70
2022-10-11T06:50:29.912Z,14.33
2022-10-11T06:55:47.404Z,13.70
2022-10-11T07:00:52.862Z,10.30
2022-10-11T07:06:02.773Z,10.77
2022-10-11T07:11:13.726Z,15.43
2022-10-11T07:16:20.310Z,9.10
2022-10-11T07:21:25.756Z,11.88
2022-10-11T07:26:38.955Z,12.43
2022-10-11T07:31:46.084Z,13.40
2022-10-11T07:36:51.939Z,8.85
2022-10-11T07:41:59.932Z,9.73
2022-10-11T07:47:10.321Z,14.07
2022-10-11T07:52:17.113Z,13.90
2022-10-11T07:57:25.607Z,15.25
2022-10-11T08:02:31.476Z,16.70
2022-10-11T08:07:37.083Z,16.40
2022-10-11T08:12:45.137Z,18.58
2022-10-11T08:17:50.754Z,29.40
2022-10-11T08:22:56.234Z,19.25
2022-10-11T08:28:04.279Z,24.52
2022-10-11T08:33:09.719Z,16.53
2022-10-11T08:38:40.360Z,14.07
2022-10-11T08:43:56.182Z,14.20
2022-10-11T08:49:04.225Z,14.40
2022-10-11T08:54:19.420Z,25.92
2022-10-11T08:59:33.517Z,19.17
2022-10-11T09:04:39.096Z,21.73
2022-10-11T09:09:57.383Z,29.27
2022-10-11T09:15:17.796Z,26.45
2022-10-11T09:20:37.011Z,28.30
2022-10-11T09:25:50.628Z,26.13
2022-10-11T09:31:01.318Z,35.63
2022-10-11T09:36:19.633Z,33.83
2022-10-11T09:41:31.270Z,36.38
2022-10-11T09:46:43.965Z,36.83
2022-10-11T09:51:54.994Z,37.97
2022-10-11T09:57:01.007Z,41.88
2022-10-11T10:02:27.540Z,38.87
2022-10-11T10:07:34.869Z,41.17
2022-10-11T10:12:40.520Z,42.83
2022-10-11T10:17:55.484Z,40.07
2022-10-11T10:23:01.891Z,40.78
2022-10-11T10:28:21.007Z,40.80
2022-10-11T10:33:33.268Z,48.17
2022-10-11T10:38:43.496Z,51.75
2022-10-11T10:43:54.577Z,47.20
2022-10-11T10:49:41.227Z,43.25
2022-10-11T10:54:51.659Z,46.90
2022-10-11T11:00:13.630Z,53.50
2022-10-11T11:05:42.655Z,53.40
2022-10-11T11:10:56.178Z,46.10
2022-10-11T11:16:13.927Z,46.03
2022-10-11T11:21:41.530Z,46.50
2022-10-11T11:26:54.630Z,51.88
2022-10-11T11:32:14.345Z,42.00
2022-10-11T11:37:31.274Z,47.93
2022-10-11T11:42:43.145Z,43.97
2022-10-11T11:47:55.443Z,38.15
2022-10-11T11:53:08.287Z,35.73
2022-10-11T11:58:28.837Z,35.20
2022-10-11T12:03:41.754Z,32.63
2022-10-11T12:09:01.780Z,29.60
2022-10-11T12:14:19.139Z,31.75
2022-10-11T12:19:25.980Z,29.43
2022-10-11T12:25:01.271Z,22.23
2022-10-11T12:30:08.108Z,19.73
2022-10-11T12:35:55.441Z,19.57
2022-10-11T12:41:40.698Z,14.65
2022-10-11T12:47:25.168Z,9.32
2022-10-11T12:52:40.628Z,12.13
2022-10-11T12:58:24.508Z,17.30
2022-10-11T13:03:36.067Z,12.05
2022-10-11T13:08:45.976Z,11.13
2022-10-11T13:13:56.506Z,11.05
2022-10-11T13:19:04.549Z,14.67
2022-10-11T13:24:16.782Z,11.93
2022-10-11T13:29:33.931Z,10.82
2022-10-11T13:34:44.676Z,9.33
2022-10-11T13:39:52.047Z,15.37
2022-10-11T13:44:58.104Z,16.50
2022-10-11T13:50:22.964Z,11.77
2022-10-11T13:55:32.129Z,16.17
2022-10-11T14:00:40.971Z,13.82
2022-10-11T14:05:57.181Z,13.47
2022-10-11T14:11:06.455Z,10.93
2022-10-11T14:16:14.639Z,10.13
2022-10-11T14:21:28.520Z,11.50
2022-10-11T14:26:37.990Z,12.70
2022-10-11T14:31:44.537Z,13.90
2022-10-11T14:36:53.731Z,15.77
2022-10-11T14:41:59.246Z,13.07
2022-10-11T14:47:06.754Z,10.93
2022-10-11T14:52:17.587Z,12.27
2022-10-11T14:57:22.866Z,13.70
2022-10-11T15:02:28.777Z,14.95
2022-10-11T15:07:36.658Z,10.20
2022-10-11T15:12:42.077Z,13.67
2022-10-11T15:17:47.449Z,13.68
2022-10-11T15:22:55.842Z,9.27
2022-10-11T15:28:01.631Z,12.70
2022-10-11T15:33:07.812Z,11.45
2022-10-11T15:38:20.000Z,12.47
2022-10-11T15:43:27.482Z,8.47
2022-10-11T15:48:34.238Z,12.32
2022-10-11T15:53:42.411Z,12.57
2022-10-11T15:58:48.235Z,9.73
2022-10-11T16:03:53.954Z,13.25
2022-10-11T16:09:01.889Z,11.07
2022-10-11T16:14:07.506Z,10.37
2022-10-11T16:19:13.304Z,9.07
2022-10-11T16:24:21.382Z,5.97
2022-10-11T16:29:26.792Z,11.63
2022-10-11T16:34:32.327Z,7.03
2022-10-11T16:39:40.863Z,7.63
2022-10-11T16:44:46.456Z,6.43
2022-10-11T16:49:51.673Z,7.63
2022-10-11T16:54:59.917Z,5.67
2022-10-11T17:00:05.355Z,11.03
2022-10-11T17:05:11.353Z,5.82
2022-10-11T17:10:19.654Z,7.27
2022-10-11T17:15:26.397Z,6.07
2022-10-11T17:20:31.930Z,6.50
2022-10-11T17:25:44.898Z,7.33
2022-10-11T17:30:56.479Z,5.60
2022-10-11T17:36:03.832Z,4.88
2022-10-11T17:41:13.283Z,10.40
2022-10-11T17:46:22.284Z,11.90
2022-10-11T17:51:28.145Z,11.30
2022-10-11T17:56:38.223Z,10.13
2022-10-11T18:01:43.862Z,13.00
2022-10-11T18:06:50.889Z,10.68
2022-10-11T18:11:59.053Z,10.73
2022-10-11T18:17:04.862Z,9.48
2022-10-11T18:22:10.298Z,4.05
2022-10-11T18:27:18.558Z,6.50
2022-10-11T18:32:23.910Z,6.90
2022-10-11T18:37:29.563Z,5.22
2022-10-11T18:42:37.882Z,6.20
2022-10-11T18:47:43.108Z,9.88
2022-10-11T18:52:48.667Z,7.27
2022-10-11T18:57:56.906Z,9.67
2022-10-11T19:03:02.482Z,7.40
2022-10-11T19:08:08.685Z,8.10
2022-10-11T19:13:17.964Z,9.77
2022-10-11T19:18:23.233Z,7.80
2022-10-11T19:23:28.707Z,9.77
2022-10-11T19:28:37.100Z,6.15
2022-10-11T19:33:42.596Z,5.22
2022-10-11T19:38:50.518Z,11.40
2022-10-11T19:43:59.325Z,10.05
2022-10-11T19:49:05.153Z,6.67
2022-10-11T19:54:13.706Z,5.73
2022-10-11T19:59:22.420Z,7.03
2022-10-11T20:04:51.052Z,6.33
2022-10-11T20:09:53.679Z,9.35
2022-10-11T20:15:01.824Z,6.63
2022-10-11T20:20:07.665Z,8.70
2022-10-11T20:25:13.193Z,6.15
2022-10-11T20:30:21.682Z,11.85
2022-10-11T20:35:27.499Z,7.20
2022-10-11T20:40:32.997Z,6.80
2022-10-11T20:45:41.089Z,8.27
2022-10-11T20:50:47.347Z,7.77
2022-10-11T20:55:53.154Z,6.80
2022-10-11T21:01:01.446Z,9.47
2022-10-11T21:06:07.632Z,6.18
2022-10-11T21:11:13.261Z,9.35
2022-10-11T21:16:21.886Z,12.37
2022-10-11T21:21:27.820Z,14.55
2022-10-11T21:26:35.359Z,13.60
2022-10-11T21:31:43.830Z,14.80
2022-10-11T21:36:49.556Z,10.98
2022-10-11T21:41:55.526Z,7.90
2022-10-11T21:47:07.744Z,7.38
2022-10-11T21:52:13.998Z,8.13
2022-10-11T21:57:19.493Z,8.43
2022-10-11T22:02:27.722Z,6.72
2022-10-11T22:07:33.120Z,11.87
2022-10-11T22:12:39.403Z,10.63
2022-10-11T22:17:48.690Z,12.30
2022-10-11T22:22:54.353Z,10.97
2022-10-11T22:27:59.853Z,11.02
2022-10-11T22:33:07.840Z,6.30
2022-10-11T22:38:13.243Z,8.97
2022-10-11T22:43:18.709Z,9.50
2022-10-11T22:48:26.891Z,9.63
2022-10-11T22:53:32.492Z,10.40
2022-10-11T22:58:37.784Z,12.05
2022-10-11T23:03:45.996Z,10.40
2022-10-11T23:08:52.195Z,9.15
2022-10-11T23:13:57.636Z,8.38
2022-10-11T23:19:06.411Z,10.17
2022-10-11T23:24:13.261Z,15.15
2022-10-11T23:29:18.709Z,9.23
2022-10-11T23:34:27.168Z,14.07
2022-10-11T23:39:32.614Z,9.02
2022-10-11T23:44:38.053Z,8.57
2022-10-11T23:49:46.018Z,9.38
2022-10-11T23:54:51.426Z,7.93
2022-10-11T23:59:56.981Z,7.50
